sensor_id;sensor_type;location;lat;lon;timestamp;pressure;altitude;pressure_sealevel;temperature;humidity
52343;BME280;38277;51.972;4.624;2022-11-28T00:00:14;101080.0;;;9.3;92.0
52343;BME280;38277;51.972;4.624;2022-11-28T00:05:08;101080.0;;;9.3;92.0
52343;BME280;38277;51.972;4.624;2022-11-28T00:10:19;101080.0;;;9.3;92.0
52343;BME280;38277;51.972;4.624;2022-11-28T00:14:01;101070.0;;;9.3;92.0
52343;BME280;38277;51.972;4.624;2022-11-28T00:18:17;101060.0;;;9.4;92.5
52343;BME280;38277;51.972;4.624;2022-11-28T00:23:02;101050.0;;;9.5;92.5
52343;BME280;38277;51.972;4.624;2022-11-28T00:27:20;101060.0;;;9.5;92.5
52343;BME280;38277;51.972;4.624;2022-11-28T00:33:37;101060.0;;;9.5;92.5
52343;BME280;38277;51.972;4.624;2022-11-28T00:36:30;101060.0;;;9.5;92.5
52343;BME280;38277;51.972;4.624;2022-11-28T00:40:59;101050.0;;;9.6;92.5
52343;BME280;38277;51.972;4.624;2022-11-28T00:46:23;101050.0;;;9.6;92.5
52343;BME280;38277;51.972;4.624;2022-11-28T00:50:00;101040.0;;;9.6;92.5
52343;BME280;38277;51.972;4.624;2022-11-28T00:54:40;101040.0;;;9.7;92.5
52343;BME280;38277;51.972;4.624;2022-11-28T00:59:06;101040.0;;;9.7;93.0
52343;BME280;38277;51.972;4.624;2022-11-28T01:03:24;101030.0;;;9.7;93.0
52343;BME280;38277;51.972;4.624;2022-11-28T01:08:13;101030.0;;;9.7;93.0
52343;BME280;38277;51.972;4.624;2022-11-28T01:13:30;101040.0;;;9.8;93.0
52343;BME280;38277;51.972;4.624;2022-11-28T01:17:03;101030.0;;;9.8;93.0
52343;BME280;38277;51.972;4.624;2022-11-28T01:22:15;101030.0;;;9.8;93.0
52343;BME280;38277;51.972;4.624;2022-11-28T01:30:21;101020.0;;;9.8;93.5
52343;BME280;38277;51.972;4.624;2022-11-28T01:35:04;101020.0;;;9.9;93.5
52343;BME280;38277;51.972;4.624;2022-11-28T01:58:19;101010.0;;;10.0;94.5
52343;BME280;38277;51.972;4.624;2022-11-28T02:06:41;101000.0;;;10.0;94.5
52343;BME280;38277;51.972;4.624;2022-11-28T02:10:56;101010.0;;;10.0;94.5
52343;BME280;38277;51.972;4.624;2022-11-28T02:30:05;101010.0;;;10.1;95.0
52343;BME280;38277;51.972;4.624;2022-11-28T02:33:57;101000.0;;;10.1;95.0
52343;BME280;38277;51.972;4.624;2022-11-28T02:44:07;101000.0;;;10.1;95.0
52343;BME280;38277;51.972;4.624;2022-11-28T02:57:15;101000.0;;;10.0;95.0
52343;BME280;38277;51.972;4.624;2022-11-28T03:18:41;101010.0;;;9.9;94.5
52343;BME280;38277;51.972;4.624;2022-11-28T03:48:22;101010.0;;;10.0;94.5
52343;BME280;38277;51.972;4.624;2022-11-28T04:04:32;101000.0;;;9.9;94.0
52343;BME280;38277;51.972;4.624;2022-11-28T04:49:35;101020.0;;;9.8;94.0
52343;BME280;38277;51.972;4.624;2022-11-28T05:07:00;101020.0;;;9.8;94.0
52343;BME280;38277;51.972;4.624;2022-11-28T05:15:07;101030.0;;;9.9;94.0
52343;BME280;38277;51.972;4.624;2022-11-28T05:29:16;101050.0;;;9.8;94.0
52343;BME280;38277;51.972;4.624;2022-11-28T05:34:12;101050.0;;;9.9;94.0
52343;BME280;38277;51.972;4.624;2022-11-28T05:58:26;101050.0;;;9.9;94.5
52343;BME280;38277;51.972;4.624;2022-11-28T06:36:38;101070.0;;;10.0;95.0
52343;BME280;38277;51.972;4.624;2022-11-28T06:51:43;101070.0;;;10.0;95.0
52343;BME280;38277;51.972;4.624;2022-11-28T07:12:52;101100.0;;;10.1;95.5
52343;BME280;38277;51.972;4.624;2022-11-28T07:24:55;101090.0;;;10.1;95.5
52343;BME280;38277;51.972;4.624;2022-11-28T07:40:00;101100.0;;;10.1;95.5
52343;BME280;38277;51.972;4.624;2022-11-28T08:04:09;101120.0;;;10.2;95.5
52343;BME280;38277;51.972;4.624;2022-11-28T08:13:12;101130.0;;;10.3;95.5
52343;BME280;38277;51.972;4.624;2022-11-28T08:49:24;101130.0;;;10.5;96.0
52343;BME280;38277;51.972;4.624;2022-11-28T09:31:39;101160.0;;;11.1;95.5
52343;BME280;38277;51.972;4.624;2022-11-28T09:37:41;101150.0;;;11.2;95.0
52343;BME280;38277;51.972;4.624;2022-11-28T09:46:46;101150.0;;;11.3;95.0
52343;BME280;38277;51.972;4.624;2022-11-28T10:05:00;101170.0;;;11.6;93.5
52343;BME280;38277;51.972;4.624;2022-11-28T10:15:09;101170.0;;;11.6;93.5
52343;BME280;38277;51.972;4.624;2022-11-28T10:23:06;101170.0;;;11.7;93.5
52343;BME280;38277;51.972;4.624;2022-11-28T10:35:09;101180.0;;;11.8;93.0
52343;BME280;38277;51.972;4.624;2022-11-28T10:41:16;101180.0;;;11.9;92.5
52343;BME280;38277;51.972;4.624;2022-11-28T10:50:55;101190.0;;;12.0;92.0
52343;BME280;38277;51.972;4.624;2022-11-28T10:59:06;101200.0;;;12.1;91.0
52343;BME280;38277;51.972;4.624;2022-11-28T11:04:37;101200.0;;;12.0;91.5
52343;BME280;38277;51.972;4.624;2022-11-28T11:09:33;101190.0;;;12.1;91.5
52343;BME280;38277;51.972;4.624;2022-11-28T11:15:32;101190.0;;;12.1;91.0
52343;BME280;38277;51.972;4.624;2022-11-28T11:20:25;101180.0;;;12.1;91.5
52343;BME280;38277;51.972;4.624;2022-11-28T11:25:18;101190.0;;;12.2;91.5
52343;BME280;38277;51.972;4.624;2022-11-28T11:30:17;101190.0;;;12.3;91.0
52343;BME280;38277;51.972;4.624;2022-11-28T11:35:16;101190.0;;;12.4;90.5
52343;BME280;38277;51.972;4.624;2022-11-28T11:42:32;101190.0;;;12.6;90.0
52343;BME280;38277;51.972;4.624;2022-11-28T11:49:22;101170.0;;;12.7;89.5
52343;BME280;38277;51.972;4.624;2022-11-28T11:54:07;101170.0;;;12.8;89.0
52343;BME280;38277;51.972;4.624;2022-11-28T11:57:20;101170.0;;;12.8;88.5
52343;BME280;38277;51.972;4.624;2022-11-28T12:04:58;101180.0;;;13.0;88.0
52343;BME280;38277;51.972;4.624;2022-11-28T12:09:56;101180.0;;;13.0;88.0
52343;BME280;38277;51.972;4.624;2022-11-28T12:14:49;101180.0;;;13.1;87.5
52343;BME280;38277;51.972;4.624;2022-11-28T12:20:24;101180.0;;;13.1;87.0
52343;BME280;38277;51.972;4.624;2022-11-28T12:28:37;101190.0;;;13.1;87.0
52343;BME280;38277;51.972;4.624;2022-11-28T12:32:51;101190.0;;;13.2;87.0
52343;BME280;38277;51.972;4.624;2022-11-28T12:37:10;101190.0;;;13.3;86.5
52343;BME280;38277;51.972;4.624;2022-11-28T12:47:43;101210.0;;;13.4;86.0
52343;BME280;38277;51.972;4.624;2022-11-28T12:52:51;101200.0;;;13.5;86.0
52343;BME280;38277;51.972;4.624;2022-11-28T12:57:49;101190.0;;;13.5;84.5
52343;BME280;38277;51.972;4.624;2022-11-28T13:01:46;101190.0;;;13.6;84.5
52343;BME280;38277;51.972;4.624;2022-11-28T13:04:48;101200.0;;;13.7;84.0
52343;BME280;38277;51.972;4.624;2022-11-28T13:09:45;101220.0;;;13.6;83.5
52343;BME280;38277;51.972;4.624;2022-11-28T13:13:58;101220.0;;;13.5;83.0
52343;BME280;38277;51.972;4.624;2022-11-28T13:18:57;101230.0;;;13.4;83.5
52343;BME280;38277;51.972;4.624;2022-11-28T13:23:33;101220.0;;;13.3;83.5
52343;BME280;38277;51.972;4.624;2022-11-28T13:26:33;101230.0;;;13.3;84.0
52343;BME280;38277;51.972;4.624;2022-11-28T13:30:42;101220.0;;;13.3;84.0
52343;BME280;38277;51.972;4.624;2022-11-28T13:36:35;101230.0;;;13.3;84.0
52343;BME280;38277;51.972;4.624;2022-11-28T13:39:53;101220.0;;;13.3;84.0
52343;BME280;38277;51.972;4.624;2022-11-28T13:44:13;101220.0;;;13.2;83.5
52343;BME280;38277;51.972;4.624;2022-11-28T13:49:00;101220.0;;;13.1;84.0
52343;BME280;38277;51.972;4.624;2022-11-28T13:54:54;101220.0;;;13.1;84.0
52343;BME280;38277;51.972;4.624;2022-11-28T13:57:36;101230.0;;;13.0;84.0
52343;BME280;38277;51.972;4.624;2022-11-28T14:01:46;101230.0;;;13.0;84.0
52343;BME280;38277;51.972;4.624;2022-11-28T14:06:30;101240.0;;;13.0;84.5
52343;BME280;38277;51.972;4.624;2022-11-28T14:15:36;101240.0;;;13.0;84.0
52343;BME280;38277;51.972;4.624;2022-11-28T14:21:01;101240.0;;;12.9;84.5
52343;BME280;38277;51.972;4.624;2022-11-28T14:25:26;101240.0;;;12.9;84.5
52343;BME280;38277;51.972;4.624;2022-11-28T14:29:40;101240.0;;;12.9;84.5
52343;BME280;38277;51.972;4.624;2022-11-28T14:33:22;101250.0;;;12.9;84.5
52343;BME280;38277;51.972;4.624;2022-11-28T14:42:39;101260.0;;;12.8;84.5
52343;BME280;38277;51.972;4.624;2022-11-28T14:48:06;101260.0;;;12.7;84.5
52343;BME280;38277;51.972;4.624;2022-11-28T14:56:32;101280.0;;;12.4;84.5
52343;BME280;38277;51.972;4.624;2022-11-28T15:00:38;101280.0;;;12.3;85.0
52343;BME280;38277;51.972;4.624;2022-11-28T15:05:48;101280.0;;;12.2;85.0
52343;BME280;38277;51.972;4.624;2022-11-28T15:09:31;101280.0;;;12.1;85.0
52343;BME280;38277;51.972;4.624;2022-11-28T15:14:20;101290.0;;;12.0;85.5
52343;BME280;38277;51.972;4.624;2022-11-28T15:18:25;101290.0;;;11.9;85.5
52343;BME280;38277;51.972;4.624;2022-11-28T15:22:56;101300.0;;;11.7;86.0
52343;BME280;38277;51.972;4.624;2022-11-28T15:27:31;101310.0;;;11.6;86.5
52343;BME280;38277;51.972;4.624;2022-11-28T15:32:04;101310.0;;;11.5;87.0
52343;BME280;38277;51.972;4.624;2022-11-28T15:36:29;101320.0;;;11.4;87.0
52343;BME280;38277;51.972;4.624;2022-11-28T15:41:44;101320.0;;;11.3;87.5
52343;BME280;38277;51.972;4.624;2022-11-28T15:46:27;101320.0;;;11.2;88.0
52343;BME280;38277;51.972;4.624;2022-11-28T15:50:20;101320.0;;;11.2;88.0
52343;BME280;38277;51.972;4.624;2022-11-28T15:54:41;101330.0;;;11.1;88.5
52343;BME280;38277;51.972;4.624;2022-11-28T15:59:48;101340.0;;;11.1;88.5
52343;BME280;38277;51.972;4.624;2022-11-28T16:03:46;101340.0;;;11.1;88.5
52343;BME280;38277;51.972;4.624;2022-11-28T16:07:49;101350.0;;;11.1;89.0
52343;BME280;38277;51.972;4.624;2022-11-28T16:12:34;101340.0;;;11.1;89.0
52343;BME280;38277;51.972;4.624;2022-11-28T16:17:39;101350.0;;;11.0;89.0
52343;BME280;38277;51.972;4.624;2022-11-28T16:21:25;101360.0;;;11.0;89.5
52343;BME280;38277;51.972;4.624;2022-11-28T16:26:19;101360.0;;;11.0;89.5
52343;BME280;38277;51.972;4.624;2022-11-28T16:30:46;101360.0;;;11.0;89.5
52343;BME280;38277;51.972;4.624;2022-11-28T16:34:54;101360.0;;;11.0;89.5
52343;BME280;38277;51.972;4.624;2022-11-28T16:39:29;101350.0;;;11.0;90.0
52343;BME280;38277;51.972;4.624;2022-11-28T16:44:01;101370.0;;;11.0;90.0
52343;BME280;38277;51.972;4.624;2022-11-28T16:48:33;101380.0;;;11.0;90.0
52343;BME280;38277;51.972;4.624;2022-11-28T16:52:54;101370.0;;;11.0;90.0
52343;BME280;38277;51.972;4.624;2022-11-28T16:57:15;101380.0;;;11.0;90.0
52343;BME280;38277;51.972;4.624;2022-11-28T17:01:56;101370.0;;;11.0;90.5
52343;BME280;38277;51.972;4.624;2022-11-28T17:06:23;101380.0;;;11.0;90.0
52343;BME280;38277;51.972;4.624;2022-11-28T17:11:55;101380.0;;;11.0;90.0
52343;BME280;38277;51.972;4.624;2022-11-28T17:15:35;101380.0;;;10.9;90.0
52343;BME280;38277;51.972;4.624;2022-11-28T17:19:51;101400.0;;;10.9;90.0
52343;BME280;38277;51.972;4.624;2022-11-28T17:24:37;101410.0;;;10.9;90.5
52343;BME280;38277;51.972;4.624;2022-11-28T17:33:38;101410.0;;;10.9;91.0
52343;BME280;38277;51.972;4.624;2022-11-28T17:42:23;101420.0;;;11.0;91.0
52343;BME280;38277;51.972;4.624;2022-11-28T17:51:36;101430.0;;;10.9;91.0
52343;BME280;38277;51.972;4.624;2022-11-28T17:56:12;101430.0;;;10.9;91.0
52343;BME280;38277;51.972;4.624;2022-11-28T18:00:21;101430.0;;;10.9;91.0
52343;BME280;38277;51.972;4.624;2022-11-28T18:05:02;101440.0;;;10.9;91.0
52343;BME280;38277;51.972;4.624;2022-11-28T18:09:30;101440.0;;;10.8;91.5
52343;BME280;38277;51.972;4.624;2022-11-28T18:14:04;101440.0;;;10.8;91.5
52343;BME280;38277;51.972;4.624;2022-11-28T18:18:42;101450.0;;;10.8;91.5
52343;BME280;38277;51.972;4.624;2022-11-28T18:22:51;101450.0;;;10.8;91.5
52343;BME280;38277;51.972;4.624;2022-11-28T18:28:02;101450.0;;;10.8;91.5
52343;BME280;38277;51.972;4.624;2022-11-28T18:31:57;101440.0;;;10.7;91.5
52343;BME280;38277;51.972;4.624;2022-11-28T18:36:39;101450.0;;;10.7;91.5
52343;BME280;38277;51.972;4.624;2022-11-28T18:40:48;101450.0;;;10.7;91.5
52343;BME280;38277;51.972;4.624;2022-11-28T18:45:29;101450.0;;;10.7;91.5
52343;BME280;38277;51.972;4.624;2022-11-28T18:49:45;101450.0;;;10.7;91.5
52343;BME280;38277;51.972;4.624;2022-11-28T18:54:44;101450.0;;;10.7;91.0
52343;BME280;38277;51.972;4.624;2022-11-28T18:59:02;101450.0;;;10.7;91.0
52343;BME280;38277;51.972;4.624;2022-11-28T19:04:27;101460.0;;;10.7;91.0
52343;BME280;38277;51.972;4.624;2022-11-28T19:08:37;101470.0;;;10.7;91.0
52343;BME280;38277;51.972;4.624;2022-11-28T19:12:21;101480.0;;;10.7;91.0
52343;BME280;38277;51.972;4.624;2022-11-28T19:17:06;101470.0;;;10.7;90.5
52343;BME280;38277;51.972;4.624;2022-11-28T19:21:34;101470.0;;;10.6;90.5
52343;BME280;38277;51.972;4.624;2022-11-28T19:26:13;101480.0;;;10.6;90.5
52343;BME280;38277;51.972;4.624;2022-11-28T19:30:15;101480.0;;;10.5;90.5
52343;BME280;38277;51.972;4.624;2022-11-28T19:35:06;101480.0;;;10.5;90.5
52343;BME280;38277;51.972;4.624;2022-11-28T19:39:39;101480.0;;;10.5;90.5
52343;BME280;38277;51.972;4.624;2022-11-28T19:44:02;101480.0;;;10.4;90.0
52343;BME280;38277;51.972;4.624;2022-11-28T19:49:27;101490.0;;;10.4;90.0
52343;BME280;38277;51.972;4.624;2022-11-28T19:57:34;101490.0;;;10.3;90.0
52343;BME280;38277;51.972;4.624;2022-11-28T20:01:44;101500.0;;;10.3;90.0
52343;BME280;38277;51.972;4.624;2022-11-28T20:06:35;101500.0;;;10.3;90.0
52343;BME280;38277;51.972;4.624;2022-11-28T20:10:56;101500.0;;;10.3;90.5
52343;BME280;38277;51.972;4.624;2022-11-28T20:19:59;101500.0;;;10.2;90.5
52343;BME280;38277;51.972;4.624;2022-11-28T20:24:32;101510.0;;;10.2;90.5
52343;BME280;38277;51.972;4.624;2022-11-28T20:33:40;101530.0;;;10.1;90.5
52343;BME280;38277;51.972;4.624;2022-11-28T20:37:56;101530.0;;;10.1;90.5
52343;BME280;38277;51.972;4.624;2022-11-28T20:42:31;101530.0;;;10.1;90.5
52343;BME280;38277;51.972;4.624;2022-11-28T20:46:50;101540.0;;;10.0;90.5
52343;BME280;38277;51.972;4.624;2022-11-28T20:51:32;101540.0;;;10.0;90.5
52343;BME280;38277;51.972;4.624;2022-11-28T21:09:28;101560.0;;;10.0;91.0
52343;BME280;38277;51.972;4.624;2022-11-28T21:14:11;101560.0;;;10.0;91.0
52343;BME280;38277;51.972;4.624;2022-11-28T21:18:15;101560.0;;;10.0;91.0
52343;BME280;38277;51.972;4.624;2022-11-28T21:23:32;101560.0;;;10.1;91.0
52343;BME280;38277;51.972;4.624;2022-11-28T21:27:22;101560.0;;;10.1;90.5
52343;BME280;38277;51.972;4.624;2022-11-28T21:32:12;101560.0;;;10.1;90.5
52343;BME280;38277;51.972;4.624;2022-11-28T21:41:10;101560.0;;;10.0;90.5
52343;BME280;38277;51.972;4.624;2022-11-28T21:45:39;101550.0;;;9.9;90.5
52343;BME280;38277;51.972;4.624;2022-11-28T21:49:55;101560.0;;;9.9;90.5
52343;BME280;38277;51.972;4.624;2022-11-28T21:54:28;101570.0;;;9.8;90.5
52343;BME280;38277;51.972;4.624;2022-11-28T21:59:30;101570.0;;;9.8;91.0
52343;BME280;38277;51.972;4.624;2022-11-28T22:08:54;101570.0;;;9.7;91.0
52343;BME280;38277;51.972;4.624;2022-11-28T22:12:33;101570.0;;;9.7;90.5
52343;BME280;38277;51.972;4.624;2022-11-28T22:17:50;101570.0;;;9.6;90.5
52343;BME280;38277;51.972;4.624;2022-11-28T22:21:26;101580.0;;;9.6;90.5
52343;BME280;38277;51.972;4.624;2022-11-28T22:26:07;101580.0;;;9.6;90.5
52343;BME280;38277;51.972;4.624;2022-11-28T22:31:05;101580.0;;;9.5;90.5
52343;BME280;38277;51.972;4.624;2022-11-28T22:34:49;101580.0;;;9.4;90.0
52343;BME280;38277;51.972;4.624;2022-11-28T22:39:38;101590.0;;;9.4;90.0
52343;BME280;38277;51.972;4.624;2022-11-28T22:44:10;101600.0;;;9.3;90.0
52343;BME280;38277;51.972;4.624;2022-11-28T22:48:34;101590.0;;;9.2;90.0
52343;BME280;38277;51.972;4.624;2022-11-28T22:57:34;101610.0;;;9.1;90.0
52343;BME280;38277;51.972;4.624;2022-11-28T23:01:46;101610.0;;;9.0;90.0
52343;BME280;38277;51.972;4.624;2022-11-28T23:15:16;101620.0;;;8.7;89.5
52343;BME280;38277;51.972;4.624;2022-11-28T23:19:49;101620.0;;;8.6;89.5
52343;BME280;38277;51.972;4.624;2022-11-28T23:28:50;101620.0;;;8.4;89.5
52343;BME280;38277;51.972;4.624;2022-11-28T23:33:14;101610.0;;;8.3;89.5
52343;BME280;38277;51.972;4.624;2022-11-28T23:47:33;101630.0;;;8.2;89.5
52343;BME280;38277;51.972;4.624;2022-11-28T23:51:29;101640.0;;;8.1;89.5
52343;BME280;38277;51.972;4.624;2022-11-28T23:56:12;101640.0;;;8.0;89.5
